sensor_id;sensor_type;location;lat;lon;timestamp;P1;durP1;ratioP1;P2;durP2;ratioP2
75246;SDS011;63844;50.042;19.224;2023-12-14T00:01:18;81.30;;;32.70;;
75246;SDS011;63844;50.042;19.224;2023-12-14T00:02:55;74.30;;;31.70;;
75246;SDS011;63844;50.042;19.224;2023-12-14T00:04:32;71.10;;;31.20;;
75246;SDS011;63844;50.042;19.224;2023-12-14T00:06:08;81.00;;;33.60;;
75246;SDS011;63844;50.042;19.224;2023-12-14T00:07:45;79.70;;;32.50;;
75246;SDS011;63844;50.042;19.224;2023-12-14T00:09:22;78.60;;;32.30;;
75246;SDS011;63844;50.042;19.224;2023-12-14T00:11:05;68.00;;;31.00;;
75246;SDS011;63844;50.042;19.224;2023-12-14T00:12:46;75.20;;;30.00;;
75246;SDS011;63844;50.042;19.224;2023-12-14T00:14:22;69.10;;;30.40;;
75246;SDS011;63844;50.042;19.224;2023-12-14T00:15:59;77.00;;;30.10;;
75246;SDS011;63844;50.042;19.224;2023-12-14T00:17:36;67.20;;;27.80;;
75246;SDS011;63844;50.042;19.224;2023-12-14T00:19:13;74.40;;;31.30;;
75246;SDS011;63844;50.042;19.224;2023-12-14T00:20:49;74.00;;;29.60;;
75246;SDS011;63844;50.042;19.224;2023-12-14T00:22:26;75.20;;;30.20;;
75246;SDS011;63844;50.042;19.224;2023-12-14T00:24:03;75.10;;;31.50;;
75246;SDS011;63844;50.042;19.224;2023-12-14T00:25:40;82.00;;;32.50;;
75246;SDS011;63844;50.042;19.224;2023-12-14T00:27:16;72.30;;;28.60;;
75246;SDS011;63844;50.042;19.224;2023-12-14T00:28:53;67.10;;;29.80;;
75246;SDS011;63844;50.042;19.224;2023-12-14T00:30:29;73.00;;;29.40;;
75246;SDS011;63844;50.042;19.224;2023-12-14T00:32:06;70.50;;;29.60;;
75246;SDS011;63844;50.042;19.224;2023-12-14T00:33:43;70.60;;;28.30;;
75246;SDS011;63844;50.042;19.224;2023-12-14T00:35:20;71.90;;;28.90;;
75246;SDS011;63844;50.042;19.224;2023-12-14T00:36:57;71.90;;;28.90;;
75246;SDS011;63844;50.042;19.224;2023-12-14T00:38:34;67.50;;;27.20;;
75246;SDS011;63844;50.042;19.224;2023-12-14T00:40:10;66.20;;;27.30;;
75246;SDS011;63844;50.042;19.224;2023-12-14T00:41:47;65.00;;;26.60;;
75246;SDS011;63844;50.042;19.224;2023-12-14T00:43:24;71.40;;;29.60;;
75246;SDS011;63844;50.042;19.224;2023-12-14T00:45:01;57.20;;;27.00;;
75246;SDS011;63844;50.042;19.224;2023-12-14T00:46:37;64.10;;;26.30;;
75246;SDS011;63844;50.042;19.224;2023-12-14T00:48:14;65.10;;;25.70;;
75246;SDS011;63844;50.042;19.224;2023-12-14T00:49:51;55.40;;;23.10;;
75246;SDS011;63844;50.042;19.224;2023-12-14T00:51:27;56.80;;;22.80;;
75246;SDS011;63844;50.042;19.224;2023-12-14T00:53:04;69.30;;;25.00;;
75246;SDS011;63844;50.042;19.224;2023-12-14T00:54:41;64.50;;;25.60;;
75246;SDS011;63844;50.042;19.224;2023-12-14T00:56:18;64.50;;;25.50;;
75246;SDS011;63844;50.042;19.224;2023-12-14T00:57:54;60.00;;;24.00;;
75246;SDS011;63844;50.042;19.224;2023-12-14T00:59:31;62.50;;;23.40;;
75246;SDS011;63844;50.042;19.224;2023-12-14T01:01:08;56.60;;;22.00;;
75246;SDS011;63844;50.042;19.224;2023-12-14T01:02:44;60.30;;;23.40;;
75246;SDS011;63844;50.042;19.224;2023-12-14T01:04:21;61.00;;;23.60;;
75246;SDS011;63844;50.042;19.224;2023-12-14T01:05:58;66.10;;;23.40;;
75246;SDS011;63844;50.042;19.224;2023-12-14T01:07:34;55.90;;;23.90;;
75246;SDS011;63844;50.042;19.224;2023-12-14T01:09:11;64.90;;;24.20;;
75246;SDS011;63844;50.042;19.224;2023-12-14T01:10:48;57.20;;;22.20;;
75246;SDS011;63844;50.042;19.224;2023-12-14T01:12:25;65.20;;;25.90;;
75246;SDS011;63844;50.042;19.224;2023-12-14T01:14:01;71.90;;;26.70;;
75246;SDS011;63844;50.042;19.224;2023-12-14T01:15:38;65.40;;;25.30;;
75246;SDS011;63844;50.042;19.224;2023-12-14T01:17:14;68.10;;;25.70;;
75246;SDS011;63844;50.042;19.224;2023-12-14T01:18:51;66.10;;;25.30;;
75246;SDS011;63844;50.042;19.224;2023-12-14T01:20:28;74.40;;;26.40;;
75246;SDS011;63844;50.042;19.224;2023-12-14T01:22:05;65.90;;;26.40;;
75246;SDS011;63844;50.042;19.224;2023-12-14T01:23:42;69.40;;;27.10;;
75246;SDS011;63844;50.042;19.224;2023-12-14T01:25:19;69.40;;;27.80;;
75246;SDS011;63844;50.042;19.224;2023-12-14T01:26:55;62.00;;;26.50;;
75246;SDS011;63844;50.042;19.224;2023-12-14T01:28:32;86.10;;;30.20;;
75246;SDS011;63844;50.042;19.224;2023-12-14T01:30:09;86.50;;;33.30;;
75246;SDS011;63844;50.042;19.224;2023-12-14T01:31:46;81.20;;;30.90;;
75246;SDS011;63844;50.042;19.224;2023-12-14T01:33:23;82.80;;;31.00;;
75246;SDS011;63844;50.042;19.224;2023-12-14T01:34:59;78.10;;;29.50;;
75246;SDS011;63844;50.042;19.224;2023-12-14T01:36:36;105.20;;;37.00;;
75246;SDS011;63844;50.042;19.224;2023-12-14T01:38:13;98.40;;;34.70;;
75246;SDS011;63844;50.042;19.224;2023-12-14T01:39:49;102.00;;;36.20;;
75246;SDS011;63844;50.042;19.224;2023-12-14T01:41:26;92.80;;;30.60;;
75246;SDS011;63844;50.042;19.224;2023-12-14T01:43:07;95.10;;;33.00;;
75246;SDS011;63844;50.042;19.224;2023-12-14T01:44:45;106.00;;;36.20;;
75246;SDS011;63844;50.042;19.224;2023-12-14T01:46:22;89.80;;;32.10;;
75246;SDS011;63844;50.042;19.224;2023-12-14T01:47:58;71.80;;;26.00;;
75246;SDS011;63844;50.042;19.224;2023-12-14T01:49:35;80.90;;;26.00;;
75246;SDS011;63844;50.042;19.224;2023-12-14T01:51:12;85.80;;;30.90;;
75246;SDS011;63844;50.042;19.224;2023-12-14T01:52:49;72.70;;;28.60;;
75246;SDS011;63844;50.042;19.224;2023-12-14T01:54:25;72.20;;;26.30;;
75246;SDS011;63844;50.042;19.224;2023-12-14T01:56:02;72.00;;;27.50;;
75246;SDS011;63844;50.042;19.224;2023-12-14T01:57:39;79.30;;;28.60;;
75246;SDS011;63844;50.042;19.224;2023-12-14T01:59:15;68.30;;;25.80;;
75246;SDS011;63844;50.042;19.224;2023-12-14T02:02:38;57.70;;;23.20;;
75246;SDS011;63844;50.042;19.224;2023-12-14T02:04:16;57.10;;;23.20;;
75246;SDS011;63844;50.042;19.224;2023-12-14T02:05:53;58.70;;;23.00;;
75246;SDS011;63844;50.042;19.224;2023-12-14T02:07:29;66.30;;;25.60;;
75246;SDS011;63844;50.042;19.224;2023-12-14T02:09:06;56.40;;;23.00;;
75246;SDS011;63844;50.042;19.224;2023-12-14T02:10:43;55.10;;;20.80;;
75246;SDS011;63844;50.042;19.224;2023-12-14T02:12:19;52.00;;;21.40;;
75246;SDS011;63844;50.042;19.224;2023-12-14T02:13:56;62.00;;;23.60;;
75246;SDS011;63844;50.042;19.224;2023-12-14T02:15:33;57.90;;;22.80;;
75246;SDS011;63844;50.042;19.224;2023-12-14T02:17:10;59.60;;;22.60;;
75246;SDS011;63844;50.042;19.224;2023-12-14T02:18:46;67.00;;;26.90;;
75246;SDS011;63844;50.042;19.224;2023-12-14T02:20:23;64.40;;;25.60;;
75246;SDS011;63844;50.042;19.224;2023-12-14T02:22:00;68.80;;;25.10;;
75246;SDS011;63844;50.042;19.224;2023-12-14T02:23:46;64.00;;;23.90;;
75246;SDS011;63844;50.042;19.224;2023-12-14T02:25:23;59.00;;;22.20;;
75246;SDS011;63844;50.042;19.224;2023-12-14T02:27:00;58.80;;;22.40;;
75246;SDS011;63844;50.042;19.224;2023-12-14T02:28:37;63.30;;;25.50;;
75246;SDS011;63844;50.042;19.224;2023-12-14T02:30:14;56.80;;;22.30;;
75246;SDS011;63844;50.042;19.224;2023-12-14T02:31:51;57.20;;;24.20;;
75246;SDS011;63844;50.042;19.224;2023-12-14T02:33:27;57.80;;;23.60;;
75246;SDS011;63844;50.042;19.224;2023-12-14T02:35:05;56.10;;;20.80;;
75246;SDS011;63844;50.042;19.224;2023-12-14T02:36:42;51.40;;;21.00;;
75246;SDS011;63844;50.042;19.224;2023-12-14T02:38:19;55.20;;;22.00;;
75246;SDS011;63844;50.042;19.224;2023-12-14T02:39:56;58.90;;;23.10;;
75246;SDS011;63844;50.042;19.224;2023-12-14T02:41:32;47.20;;;19.00;;
75246;SDS011;63844;50.042;19.224;2023-12-14T02:43:09;53.50;;;20.40;;
75246;SDS011;63844;50.042;19.224;2023-12-14T02:44:46;55.70;;;21.10;;
75246;SDS011;63844;50.042;19.224;2023-12-14T02:46:23;54.50;;;20.90;;
75246;SDS011;63844;50.042;19.224;2023-12-14T02:48:00;48.80;;;20.40;;
75246;SDS011;63844;50.042;19.224;2023-12-14T02:49:36;52.50;;;20.50;;
75246;SDS011;63844;50.042;19.224;2023-12-14T02:51:13;48.80;;;18.70;;
75246;SDS011;63844;50.042;19.224;2023-12-14T02:52:53;48.60;;;19.60;;
75246;SDS011;63844;50.042;19.224;2023-12-14T02:54:30;50.60;;;19.00;;
75246;SDS011;63844;50.042;19.224;2023-12-14T02:56:06;47.00;;;17.90;;
75246;SDS011;63844;50.042;19.224;2023-12-14T02:57:45;46.70;;;18.60;;
75246;SDS011;63844;50.042;19.224;2023-12-14T02:59:22;48.90;;;18.00;;
75246;SDS011;63844;50.042;19.224;2023-12-14T03:00:58;45.20;;;18.00;;
75246;SDS011;63844;50.042;19.224;2023-12-14T03:02:35;43.40;;;17.30;;
75246;SDS011;63844;50.042;19.224;2023-12-14T03:04:11;43.80;;;18.10;;
75246;SDS011;63844;50.042;19.224;2023-12-14T03:05:48;48.70;;;20.20;;
75246;SDS011;63844;50.042;19.224;2023-12-14T03:07:25;44.00;;;18.80;;
75246;SDS011;63844;50.042;19.224;2023-12-14T03:09:02;48.60;;;20.30;;
75246;SDS011;63844;50.042;19.224;2023-12-14T03:10:39;45.90;;;19.80;;
75246;SDS011;63844;50.042;19.224;2023-12-14T03:12:15;50.00;;;20.30;;
75246;SDS011;63844;50.042;19.224;2023-12-14T03:13:52;44.90;;;18.40;;
75246;SDS011;63844;50.042;19.224;2023-12-14T03:15:29;49.10;;;20.20;;
75246;SDS011;63844;50.042;19.224;2023-12-14T03:17:06;52.80;;;20.60;;
75246;SDS011;63844;50.042;19.224;2023-12-14T03:18:48;44.40;;;18.50;;
75246;SDS011;63844;50.042;19.224;2023-12-14T03:20:29;52.70;;;21.90;;
75246;SDS011;63844;50.042;19.224;2023-12-14T03:22:07;50.40;;;21.10;;
75246;SDS011;63844;50.042;19.224;2023-12-14T03:23:44;55.10;;;22.70;;
75246;SDS011;63844;50.042;19.224;2023-12-14T03:25:21;53.30;;;21.30;;
75246;SDS011;63844;50.042;19.224;2023-12-14T03:26:58;48.80;;;21.60;;
75246;SDS011;63844;50.042;19.224;2023-12-14T03:28:34;56.50;;;23.80;;
75246;SDS011;63844;50.042;19.224;2023-12-14T03:30:11;59.90;;;22.70;;
75246;SDS011;63844;50.042;19.224;2023-12-14T03:31:48;51.60;;;21.80;;
75246;SDS011;63844;50.042;19.224;2023-12-14T03:33:24;56.30;;;22.90;;
75246;SDS011;63844;50.042;19.224;2023-12-14T03:35:01;55.90;;;21.90;;
75246;SDS011;63844;50.042;19.224;2023-12-14T03:36:38;47.30;;;20.60;;
75246;SDS011;63844;50.042;19.224;2023-12-14T03:38:14;44.70;;;20.70;;
75246;SDS011;63844;50.042;19.224;2023-12-14T03:39:51;56.90;;;22.00;;
75246;SDS011;63844;50.042;19.224;2023-12-14T03:41:28;50.70;;;20.90;;
75246;SDS011;63844;50.042;19.224;2023-12-14T03:43:04;52.80;;;21.10;;
75246;SDS011;63844;50.042;19.224;2023-12-14T03:44:41;49.90;;;20.50;;
75246;SDS011;63844;50.042;19.224;2023-12-14T03:46:18;53.20;;;20.90;;
75246;SDS011;63844;50.042;19.224;2023-12-14T03:47:54;52.80;;;21.20;;
75246;SDS011;63844;50.042;19.224;2023-12-14T03:49:36;53.40;;;20.80;;
75246;SDS011;63844;50.042;19.224;2023-12-14T03:51:17;48.50;;;19.50;;
75246;SDS011;63844;50.042;19.224;2023-12-14T03:52:54;47.50;;;19.90;;
75246;SDS011;63844;50.042;19.224;2023-12-14T03:54:31;47.20;;;18.70;;
75246;SDS011;63844;50.042;19.224;2023-12-14T03:56:08;50.70;;;19.60;;
75246;SDS011;63844;50.042;19.224;2023-12-14T03:57:45;48.70;;;19.60;;
75246;SDS011;63844;50.042;19.224;2023-12-14T03:59:21;51.00;;;21.80;;
75246;SDS011;63844;50.042;19.224;2023-12-14T04:00:58;50.40;;;20.60;;
75246;SDS011;63844;50.042;19.224;2023-12-14T04:02:34;50.60;;;20.20;;
75246;SDS011;63844;50.042;19.224;2023-12-14T04:04:11;46.40;;;20.20;;
75246;SDS011;63844;50.042;19.224;2023-12-14T04:05:48;55.90;;;21.90;;
75246;SDS011;63844;50.042;19.224;2023-12-14T04:07:24;50.00;;;20.80;;
75246;SDS011;63844;50.042;19.224;2023-12-14T04:09:01;54.10;;;21.20;;
75246;SDS011;63844;50.042;19.224;2023-12-14T04:10:38;51.80;;;21.20;;
75246;SDS011;63844;50.042;19.224;2023-12-14T04:12:15;56.20;;;20.70;;
75246;SDS011;63844;50.042;19.224;2023-12-14T04:13:51;52.00;;;20.70;;
75246;SDS011;63844;50.042;19.224;2023-12-14T04:15:30;51.40;;;20.20;;
75246;SDS011;63844;50.042;19.224;2023-12-14T04:17:06;60.30;;;24.00;;
75246;SDS011;63844;50.042;19.224;2023-12-14T04:18:43;58.30;;;23.20;;
75246;SDS011;63844;50.042;19.224;2023-12-14T04:20:19;53.10;;;22.60;;
75246;SDS011;63844;50.042;19.224;2023-12-14T04:21:56;56.50;;;23.70;;
75246;SDS011;63844;50.042;19.224;2023-12-14T04:23:33;54.90;;;21.60;;
75246;SDS011;63844;50.042;19.224;2023-12-14T04:25:09;60.00;;;23.80;;
75246;SDS011;63844;50.042;19.224;2023-12-14T04:26:46;54.30;;;23.10;;
75246;SDS011;63844;50.042;19.224;2023-12-14T04:28:23;61.10;;;25.30;;
75246;SDS011;63844;50.042;19.224;2023-12-14T04:29:59;59.40;;;23.80;;
75246;SDS011;63844;50.042;19.224;2023-12-14T04:31:36;57.30;;;23.80;;
75246;SDS011;63844;50.042;19.224;2023-12-14T04:33:12;68.80;;;26.50;;
75246;SDS011;63844;50.042;19.224;2023-12-14T04:34:49;59.70;;;23.90;;
75246;SDS011;63844;50.042;19.224;2023-12-14T04:36:26;66.20;;;27.30;;
75246;SDS011;63844;50.042;19.224;2023-12-14T04:38:02;63.60;;;26.60;;
75246;SDS011;63844;50.042;19.224;2023-12-14T04:39:39;63.50;;;25.70;;
75246;SDS011;63844;50.042;19.224;2023-12-14T04:41:16;66.00;;;27.60;;
75246;SDS011;63844;50.042;19.224;2023-12-14T04:42:52;66.90;;;26.80;;
75246;SDS011;63844;50.042;19.224;2023-12-14T04:44:29;72.60;;;27.70;;
75246;SDS011;63844;50.042;19.224;2023-12-14T04:46:06;66.80;;;27.20;;
75246;SDS011;63844;50.042;19.224;2023-12-14T04:47:43;67.50;;;26.50;;
75246;SDS011;63844;50.042;19.224;2023-12-14T04:49:20;67.80;;;25.80;;
75246;SDS011;63844;50.042;19.224;2023-12-14T04:50:56;65.80;;;26.80;;
75246;SDS011;63844;50.042;19.224;2023-12-14T04:52:33;68.20;;;26.10;;
75246;SDS011;63844;50.042;19.224;2023-12-14T04:54:10;69.30;;;26.70;;
75246;SDS011;63844;50.042;19.224;2023-12-14T04:55:46;62.20;;;24.20;;
75246;SDS011;63844;50.042;19.224;2023-12-14T04:57:23;66.10;;;25.40;;
75246;SDS011;63844;50.042;19.224;2023-12-14T04:59:00;68.10;;;26.30;;
75246;SDS011;63844;50.042;19.224;2023-12-14T05:00:36;64.60;;;26.20;;
75246;SDS011;63844;50.042;19.224;2023-12-14T05:02:13;75.60;;;25.70;;
75246;SDS011;63844;50.042;19.224;2023-12-14T05:03:50;64.80;;;25.70;;
75246;SDS011;63844;50.042;19.224;2023-12-14T05:05:27;68.70;;;25.90;;
75246;SDS011;63844;50.042;19.224;2023-12-14T05:07:03;66.40;;;22.70;;
75246;SDS011;63844;50.042;19.224;2023-12-14T05:08:40;74.40;;;26.50;;
75246;SDS011;63844;50.042;19.224;2023-12-14T05:10:17;80.50;;;27.10;;
75246;SDS011;63844;50.042;19.224;2023-12-14T05:11:54;64.40;;;22.30;;
75246;SDS011;63844;50.042;19.224;2023-12-14T05:13:30;74.10;;;24.00;;
75246;SDS011;63844;50.042;19.224;2023-12-14T05:15:07;70.20;;;23.10;;
75246;SDS011;63844;50.042;19.224;2023-12-14T05:16:45;73.80;;;25.20;;
75246;SDS011;63844;50.042;19.224;2023-12-14T05:18:21;83.40;;;28.40;;
75246;SDS011;63844;50.042;19.224;2023-12-14T05:19:58;77.10;;;23.30;;
75246;SDS011;63844;50.042;19.224;2023-12-14T05:21:35;72.70;;;23.20;;
75246;SDS011;63844;50.042;19.224;2023-12-14T05:23:12;65.30;;;23.10;;
75246;SDS011;63844;50.042;19.224;2023-12-14T05:24:49;73.00;;;22.10;;
75246;SDS011;63844;50.042;19.224;2023-12-14T05:26:25;70.50;;;22.50;;
75246;SDS011;63844;50.042;19.224;2023-12-14T05:28:02;73.60;;;20.90;;
75246;SDS011;63844;50.042;19.224;2023-12-14T05:29:39;68.10;;;21.00;;
75246;SDS011;63844;50.042;19.224;2023-12-14T05:31:16;76.10;;;20.80;;
75246;SDS011;63844;50.042;19.224;2023-12-14T05:32:53;73.60;;;21.70;;
75246;SDS011;63844;50.042;19.224;2023-12-14T05:34:29;81.80;;;22.20;;
75246;SDS011;63844;50.042;19.224;2023-12-14T05:36:06;71.90;;;22.10;;
75246;SDS011;63844;50.042;19.224;2023-12-14T05:37:47;71.60;;;21.10;;
75246;SDS011;63844;50.042;19.224;2023-12-14T05:39:24;74.30;;;22.60;;
75246;SDS011;63844;50.042;19.224;2023-12-14T05:41:00;64.50;;;19.30;;
75246;SDS011;63844;50.042;19.224;2023-12-14T05:42:37;71.80;;;19.80;;
75246;SDS011;63844;50.042;19.224;2023-12-14T05:44:14;75.50;;;21.20;;
75246;SDS011;63844;50.042;19.224;2023-12-14T05:45:50;72.60;;;20.00;;
75246;SDS011;63844;50.042;19.224;2023-12-14T05:47:27;73.10;;;20.10;;
75246;SDS011;63844;50.042;19.224;2023-12-14T05:49:04;83.20;;;21.30;;
75246;SDS011;63844;50.042;19.224;2023-12-14T05:50:41;74.60;;;19.60;;
75246;SDS011;63844;50.042;19.224;2023-12-14T05:52:17;64.70;;;19.60;;
75246;SDS011;63844;50.042;19.224;2023-12-14T05:53:54;72.80;;;20.20;;
75246;SDS011;63844;50.042;19.224;2023-12-14T05:55:31;78.40;;;19.80;;
75246;SDS011;63844;50.042;19.224;2023-12-14T05:57:07;90.70;;;21.00;;
75246;SDS011;63844;50.042;19.224;2023-12-14T05:58:44;69.00;;;20.40;;
75246;SDS011;63844;50.042;19.224;2023-12-14T06:00:21;74.60;;;20.10;;
75246;SDS011;63844;50.042;19.224;2023-12-14T06:01:58;79.10;;;21.30;;
75246;SDS011;63844;50.042;19.224;2023-12-14T06:03:35;76.80;;;20.40;;
75246;SDS011;63844;50.042;19.224;2023-12-14T06:05:12;72.30;;;21.80;;
75246;SDS011;63844;50.042;19.224;2023-12-14T06:06:49;72.40;;;21.30;;
75246;SDS011;63844;50.042;19.224;2023-12-14T06:08:25;73.50;;;19.00;;
75246;SDS011;63844;50.042;19.224;2023-12-14T06:10:02;75.90;;;22.50;;
75246;SDS011;63844;50.042;19.224;2023-12-14T06:11:40;74.50;;;20.60;;
75246;SDS011;63844;50.042;19.224;2023-12-14T06:13:16;76.70;;;20.70;;
75246;SDS011;63844;50.042;19.224;2023-12-14T06:14:53;85.10;;;22.10;;
75246;SDS011;63844;50.042;19.224;2023-12-14T06:16:30;67.00;;;20.40;;
75246;SDS011;63844;50.042;19.224;2023-12-14T06:18:06;73.50;;;19.00;;
75246;SDS011;63844;50.042;19.224;2023-12-14T06:19:43;82.10;;;21.70;;
75246;SDS011;63844;50.042;19.224;2023-12-14T06:21:20;69.90;;;19.20;;
75246;SDS011;63844;50.042;19.224;2023-12-14T06:22:57;74.50;;;19.30;;
75246;SDS011;63844;50.042;19.224;2023-12-14T06:24:33;71.20;;;21.90;;
75246;SDS011;63844;50.042;19.224;2023-12-14T06:26:10;74.10;;;21.50;;
75246;SDS011;63844;50.042;19.224;2023-12-14T06:27:47;83.00;;;22.90;;
75246;SDS011;63844;50.042;19.224;2023-12-14T06:29:23;67.70;;;22.10;;
75246;SDS011;63844;50.042;19.224;2023-12-14T06:31:00;74.60;;;22.60;;
75246;SDS011;63844;50.042;19.224;2023-12-14T06:32:37;74.80;;;21.60;;
75246;SDS011;63844;50.042;19.224;2023-12-14T06:34:14;61.30;;;20.10;;
75246;SDS011;63844;50.042;19.224;2023-12-14T06:35:51;74.60;;;21.90;;
75246;SDS011;63844;50.042;19.224;2023-12-14T06:37:27;64.70;;;20.10;;
75246;SDS011;63844;50.042;19.224;2023-12-14T06:39:04;66.10;;;21.80;;
75246;SDS011;63844;50.042;19.224;2023-12-14T06:40:41;61.90;;;21.50;;
75246;SDS011;63844;50.042;19.224;2023-12-14T06:42:18;63.50;;;20.60;;
75246;SDS011;63844;50.042;19.224;2023-12-14T06:43:55;64.20;;;20.10;;
75246;SDS011;63844;50.042;19.224;2023-12-14T06:45:32;55.00;;;19.20;;
75246;SDS011;63844;50.042;19.224;2023-12-14T06:47:08;60.70;;;19.40;;
75246;SDS011;63844;50.042;19.224;2023-12-14T06:48:45;57.30;;;19.80;;
75246;SDS011;63844;50.042;19.224;2023-12-14T06:50:22;55.40;;;20.00;;
75246;SDS011;63844;50.042;19.224;2023-12-14T06:51:59;60.80;;;20.10;;
75246;SDS011;63844;50.042;19.224;2023-12-14T06:53:38;56.40;;;20.10;;
75246;SDS011;63844;50.042;19.224;2023-12-14T06:55:16;54.00;;;17.90;;
75246;SDS011;63844;50.042;19.224;2023-12-14T06:56:53;54.20;;;19.40;;
75246;SDS011;63844;50.042;19.224;2023-12-14T06:58:30;51.60;;;19.00;;
75246;SDS011;63844;50.042;19.224;2023-12-14T07:00:08;61.60;;;19.80;;
75246;SDS011;63844;50.042;19.224;2023-12-14T07:01:45;61.50;;;20.00;;
75246;SDS011;63844;50.042;19.224;2023-12-14T07:03:22;56.90;;;18.40;;
75246;SDS011;63844;50.042;19.224;2023-12-14T07:04:59;55.30;;;20.00;;
75246;SDS011;63844;50.042;19.224;2023-12-14T07:06:36;54.60;;;19.00;;
75246;SDS011;63844;50.042;19.224;2023-12-14T07:08:12;49.10;;;17.60;;
75246;SDS011;63844;50.042;19.224;2023-12-14T07:09:49;54.50;;;17.60;;
75246;SDS011;63844;50.042;19.224;2023-12-14T07:11:25;53.00;;;16.80;;
75246;SDS011;63844;50.042;19.224;2023-12-14T07:13:02;51.50;;;16.50;;
75246;SDS011;63844;50.042;19.224;2023-12-14T07:14:39;55.10;;;18.00;;
75246;SDS011;63844;50.042;19.224;2023-12-14T07:16:16;48.90;;;17.50;;
75246;SDS011;63844;50.042;19.224;2023-12-14T07:17:54;50.90;;;17.60;;
75246;SDS011;63844;50.042;19.224;2023-12-14T07:19:30;49.20;;;17.20;;
75246;SDS011;63844;50.042;19.224;2023-12-14T07:21:08;53.90;;;18.00;;
75246;SDS011;63844;50.042;19.224;2023-12-14T07:22:45;52.70;;;17.20;;
75246;SDS011;63844;50.042;19.224;2023-12-14T07:24:21;48.90;;;17.30;;
75246;SDS011;63844;50.042;19.224;2023-12-14T07:25:58;50.80;;;16.80;;
75246;SDS011;63844;50.042;19.224;2023-12-14T07:27:35;51.30;;;17.80;;
75246;SDS011;63844;50.042;19.224;2023-12-14T07:29:11;51.50;;;15.50;;
75246;SDS011;63844;50.042;19.224;2023-12-14T07:30:48;46.00;;;14.80;;
75246;SDS011;63844;50.042;19.224;2023-12-14T07:32:25;60.00;;;18.00;;
75246;SDS011;63844;50.042;19.224;2023-12-14T07:34:03;47.10;;;15.00;;
75246;SDS011;63844;50.042;19.224;2023-12-14T07:35:39;41.10;;;15.70;;
75246;SDS011;63844;50.042;19.224;2023-12-14T07:37:16;45.90;;;16.40;;
75246;SDS011;63844;50.042;19.224;2023-12-14T07:38:53;53.40;;;17.50;;
75246;SDS011;63844;50.042;19.224;2023-12-14T07:40:30;55.60;;;19.60;;
75246;SDS011;63844;50.042;19.224;2023-12-14T07:42:07;60.50;;;19.20;;
75246;SDS011;63844;50.042;19.224;2023-12-14T07:43:43;42.20;;;16.50;;
75246;SDS011;63844;50.042;19.224;2023-12-14T07:45:20;51.90;;;18.30;;
75246;SDS011;63844;50.042;19.224;2023-12-14T07:47:00;47.10;;;17.40;;
75246;SDS011;63844;50.042;19.224;2023-12-14T07:48:36;47.00;;;16.50;;
75246;SDS011;63844;50.042;19.224;2023-12-14T07:50:13;44.90;;;15.50;;
75246;SDS011;63844;50.042;19.224;2023-12-14T07:51:50;47.10;;;16.80;;
75246;SDS011;63844;50.042;19.224;2023-12-14T07:53:28;44.90;;;16.30;;
75246;SDS011;63844;50.042;19.224;2023-12-14T07:55:05;48.20;;;15.70;;
75246;SDS011;63844;50.042;19.224;2023-12-14T07:56:42;46.30;;;16.20;;
75246;SDS011;63844;50.042;19.224;2023-12-14T07:58:19;45.50;;;17.00;;
75246;SDS011;63844;50.042;19.224;2023-12-14T07:59:57;48.10;;;16.30;;
75246;SDS011;63844;50.042;19.224;2023-12-14T08:01:34;51.50;;;19.00;;
75246;SDS011;63844;50.042;19.224;2023-12-14T08:03:11;47.70;;;18.60;;
75246;SDS011;63844;50.042;19.224;2023-12-14T08:04:47;43.90;;;15.80;;
75246;SDS011;63844;50.042;19.224;2023-12-14T08:06:24;49.50;;;17.70;;
75246;SDS011;63844;50.042;19.224;2023-12-14T08:08:01;49.20;;;16.40;;
75246;SDS011;63844;50.042;19.224;2023-12-14T08:09:37;43.90;;;17.40;;
75246;SDS011;63844;50.042;19.224;2023-12-14T08:11:14;43.60;;;15.80;;
75246;SDS011;63844;50.042;19.224;2023-12-14T08:12:51;43.00;;;15.70;;
75246;SDS011;63844;50.042;19.224;2023-12-14T08:14:28;42.80;;;16.30;;
75246;SDS011;63844;50.042;19.224;2023-12-14T08:16:05;41.80;;;16.90;;
75246;SDS011;63844;50.042;19.224;2023-12-14T08:17:43;40.70;;;16.00;;
75246;SDS011;63844;50.042;19.224;2023-12-14T08:19:19;40.10;;;15.80;;
75246;SDS011;63844;50.042;19.224;2023-12-14T08:20:56;45.80;;;16.60;;
75246;SDS011;63844;50.042;19.224;2023-12-14T08:22:33;43.50;;;15.40;;
75246;SDS011;63844;50.042;19.224;2023-12-14T08:24:09;40.60;;;16.20;;
75246;SDS011;63844;50.042;19.224;2023-12-14T08:25:46;40.20;;;15.60;;
75246;SDS011;63844;50.042;19.224;2023-12-14T08:27:23;41.50;;;16.10;;
75246;SDS011;63844;50.042;19.224;2023-12-14T08:28:59;39.30;;;15.80;;
75246;SDS011;63844;50.042;19.224;2023-12-14T08:30:36;36.10;;;15.20;;
75246;SDS011;63844;50.042;19.224;2023-12-14T08:32:15;40.80;;;16.20;;
75246;SDS011;63844;50.042;19.224;2023-12-14T08:33:52;37.20;;;15.90;;
75246;SDS011;63844;50.042;19.224;2023-12-14T08:35:29;42.30;;;15.60;;
75246;SDS011;63844;50.042;19.224;2023-12-14T08:37:06;39.30;;;15.10;;
75246;SDS011;63844;50.042;19.224;2023-12-14T08:38:42;41.10;;;14.80;;
75246;SDS011;63844;50.042;19.224;2023-12-14T08:40:19;38.10;;;15.80;;
75246;SDS011;63844;50.042;19.224;2023-12-14T08:41:56;40.70;;;15.60;;
75246;SDS011;63844;50.042;19.224;2023-12-14T08:43:32;42.30;;;17.30;;
75246;SDS011;63844;50.042;19.224;2023-12-14T08:45:09;45.50;;;16.40;;
75246;SDS011;63844;50.042;19.224;2023-12-14T08:46:48;44.00;;;16.40;;
75246;SDS011;63844;50.042;19.224;2023-12-14T08:48:25;39.60;;;16.60;;
75246;SDS011;63844;50.042;19.224;2023-12-14T08:50:02;40.20;;;16.40;;
75246;SDS011;63844;50.042;19.224;2023-12-14T08:51:39;43.70;;;17.20;;
75246;SDS011;63844;50.042;19.224;2023-12-14T08:53:16;36.70;;;14.30;;
75246;SDS011;63844;50.042;19.224;2023-12-14T08:54:53;43.80;;;16.00;;
75246;SDS011;63844;50.042;19.224;2023-12-14T08:56:30;42.30;;;15.50;;
75246;SDS011;63844;50.042;19.224;2023-12-14T08:58:06;36.70;;;15.40;;
75246;SDS011;63844;50.042;19.224;2023-12-14T08:59:43;41.00;;;17.70;;
75246;SDS011;63844;50.042;19.224;2023-12-14T09:01:20;46.40;;;18.50;;
75246;SDS011;63844;50.042;19.224;2023-12-14T09:02:57;44.80;;;17.40;;
75246;SDS011;63844;50.042;19.224;2023-12-14T09:04:34;48.50;;;18.80;;
75246;SDS011;63844;50.042;19.224;2023-12-14T09:06:12;39.40;;;16.20;;
75246;SDS011;63844;50.042;19.224;2023-12-14T09:07:48;39.60;;;16.40;;
75246;SDS011;63844;50.042;19.224;2023-12-14T09:09:25;45.60;;;18.80;;
75246;SDS011;63844;50.042;19.224;2023-12-14T09:11:02;49.10;;;17.00;;
75246;SDS011;63844;50.042;19.224;2023-12-14T09:12:39;47.40;;;22.50;;
75246;SDS011;63844;50.042;19.224;2023-12-14T09:14:15;47.50;;;20.00;;
75246;SDS011;63844;50.042;19.224;2023-12-14T09:15:52;45.70;;;18.80;;
75246;SDS011;63844;50.042;19.224;2023-12-14T09:17:30;47.60;;;19.20;;
75246;SDS011;63844;50.042;19.224;2023-12-14T09:19:09;54.90;;;25.00;;
75246;SDS011;63844;50.042;19.224;2023-12-14T09:20:45;45.80;;;18.40;;